Latest Coastal Weather Observations for Wynyard

IDT60701

Issued at 6:22 am EDT Sunday 1 March 2015 (issued every 10 minutes, with the page automatically refreshed every 10 minutes)

About coastal observations | Map of coastal stations | Coastal observations for TAS | Marine services | Other Formats
Station Details ID: 091107 Name: WYNYARD AIRPORT Lat: -41.00 Lon: 145.73 Height: 12.0 m
Data from the previous 72 hours. | See also: Recent months at Wynyard
Date/Time
EDT
Temp

°C
Wind Pressure Rain
since 9am
mm
Weather Cloud Vis
km
Sea
Height
m
Swell
Dir
 
Speed
knots
Gust
knots
hPa Trend Height
m
Period
s
Dir
01/06:00am 12.3 SW 13 17 1004.5 - 6.6 - - 10 - - - -
01/05:30am 12.5 WSW 12 16 1003.8 - 6.6 - - 10 - - - -
01/05:00am 12.2 WSW 9 12 1003.6 - 6.6 - - 10 - - - -
01/04:30am 12.0 WNW 6 8 1003.4 - 6.6 - - 10 - - - -
01/04:00am 12.4 WSW 7 11 1003.3 - 6.6 - - 10 - - - -
01/03:30am 12.6 W 9 11 1003.3 - 6.6 - - 10 - - - -
01/03:00am 12.7 WNW 9 11 1003.3 - 6.6 - - 10 - - - -
01/02:30am 12.8 W 9 11 1003.2 - 6.6 - - 10 - - - -
01/02:00am 12.6 W 7 9 1003.2 - 6.6 - - 10 - - - -
01/01:30am 13.4 WSW 8 11 1003.2 - 6.6 - - 10 - - - -
01/01:00am 13.8 WSW 10 13 1003.0 - 6.6 - - 10 - - - -
01/12:30am 14.2 WSW 11 16 1002.8 - 6.6 - - 10 - - - -
 
Date/Time
EDT
Temp

°C
Wind Pressure Rain
since 9am
mm
Weather Cloud Vis
km
Sea
Height
m
Swell
Dir
 
Speed
knots
Gust
knots
hPa Trend Height
m
Period
s
Dir
28/11:30pm 15.3 W 9 13 1002.8 - 6.6 - - 10 - - - -
28/11:00pm 16.0 WSW 9 13 1002.7 - 6.6 - Partly cloudy 10 - - - -
28/10:30pm 16.9 W 15 20 1002.7 - 6.6 - Partly cloudy 10 - - - -
28/10:00pm 17.3 W 9 13 1002.2 - 6.6 - Partly cloudy 10 - - - -
28/09:30pm 17.8 WNW 9 10 1002.0 - 6.6 - Partly cloudy 10 - - - -
28/09:00pm 18.0 WNW 7 10 1001.5 - 6.6 - Cloudy 10 - - - -
28/08:33pm 17.9 WNW 7 9 1000.7 - 6.6 - Partly cloudy 10 - - - -
28/08:30pm 18.0 WNW 7 9 1000.8 - 6.6 - Partly cloudy 10 - - - -
28/08:21pm 18.0 WNW 4 6 1000.6 - 6.6 - Partly cloudy 10 - - - -
28/08:00pm 18.0 CALM 0 0 1000.3 - 6.6 - Partly cloudy 10 - - - -
28/07:41pm 18.0 CALM 0 0 1000.3 - 6.6 - Partly cloudy 10 - - - -
28/07:30pm 18.0 CALM 0 3 1000.5 - 6.6 - Partly cloudy 10 - - - -
28/07:27pm 18.0 SSE 1 4 1000.6 - 6.6 - Partly cloudy 10 - - - -
28/07:00pm 18.1 CALM 0 0 1000.9 - 5.8 - Partly cloudy 5 - - - -
28/06:59pm 18.2 CALM 0 0 1000.9 - 5.8 - Partly cloudy 5 - - - -
28/06:44pm 18.1 NE 2 5 1000.2 - 5.6 - Partly cloudy 10 - - - -
28/06:30pm 18.1 NNE 4 5 1000.3 - 5.4 - Partly cloudy 10 - - - -
28/06:12pm 18.1 NE 5 6 1000.6 - 5.4 - Partly cloudy 10 - - - -
28/06:00pm 18.1 NE 5 7 1000.6 - 5.4 - Cloudy 10 - - - -
28/05:30pm 18.8 ESE 1 4 1000.9 - 5.4 - Partly cloudy 10 - - - -
28/05:00pm 18.0 ENE 2 5 1001.2 - 5.4 - Cloudy 10 - - - -
28/04:38pm 17.9 SSE 2 4 1001.6 - 5.4 - Partly cloudy 10 - - - -
28/04:34pm 18.3 SSE 2 4 1001.5 - 5.4 - Partly cloudy 10 - - - -
28/04:30pm 18.0 SE 2 4 1001.4 - 5.4 - Partly cloudy 10 - - - -
28/04:00pm 16.9 CALM 0 0 1002.1 - 5.2 - Partly cloudy 10 - - - -
28/03:59pm 17.0 CALM 0 0 1002.0 - 5.2 - Partly cloudy 10 - - - -
28/03:58pm 16.9 CALM 0 0 1002.0 - 5.2 - Partly cloudy 10 - - - -
28/03:30pm 16.5 SSW 4 6 1002.4 - 5.0 - Partly cloudy 10 - - - -
28/03:17pm 16.1 SSW 4 6 1002.6 - 5.0 - Partly cloudy 9 - - - -
28/03:00pm 15.8 S 5 8 1002.6 - 5.0 Recent precip. Cloudy 4 - - - -
28/02:30pm 15.7 ESE 6 9 1002.9 - 4.2 - Cloudy 4 - - - -
28/02:17pm 15.7 ESE 6 8 1003.2 - 3.8 - Cloudy 5 - - - -
28/02:12pm 15.8 ESE 6 8 1003.3 - 3.8 - Partly cloudy 7 - - - -
28/02:00pm 15.8 ESE 5 8 1003.4 - 3.4 - Partly cloudy 5 - - - -
28/01:30pm 16.0 NE 5 7 1004.0 - 1.4 - Cloudy 5 - - - -
28/01:22pm 16.0 NE 5 8 1004.1 - 1.0 - Cloudy 5 - - - -
28/01:13pm 16.1 NE 6 8 1004.1 - 0.4 - Partly cloudy 5 - - - -
28/01:00pm 16.3 NE 5 7 1004.3 - 0.2 - Partly cloudy 9 - - - -
28/12:30pm 16.9 NE 5 8 1004.8 - 0.0 - Cloudy 8 - - - -
28/12:00pm 17.0 NNE 6 8 1005.1 - 0.0 - Cloudy 10 - - - -
28/11:30am 17.0 NNE 6 10 1005.5 - 0.0 - Cloudy 10 - - - -
28/11:00am 16.9 NNE 7 10 1005.8 - 0.0 - Cloudy 10 - - - -
28/10:30am 16.7 NE 5 8 1006.0 - 0.0 - Partly cloudy 10 - - - -
28/10:00am 16.7 NE 7 11 1006.1 - 0.0 - Cloudy 10 - - - -
28/09:30am 16.9 NE 7 10 1006.2 - 0.0 - Cloudy 10 - - - -
28/09:00am 16.2 NE 7 10 1006.4 - 0.0 - Cloudy 10 - - - -
28/08:30am 16.2 NE 7 10 1006.1 - 0.0 - Cloudy 10 - - - -
28/08:00am 16.2 NE 8 11 1006.3 - 0.0 - Cloudy 10 - - - -
28/07:30am 15.9 NE 6 9 1006.2 - 0.0 - Partly cloudy 10 - - - -
28/07:27am 15.9 NE 6 9 1006.2 - 0.0 - Partly cloudy 10 - - - -
28/07:15am 15.7 NE 8 13 1006.2 - 0.0 - Partly cloudy 10 - - - -
28/07:00am 15.8 NE 7 11 1006.3 - 0.0 - Partly cloudy 10 - - - -
28/06:30am 15.6 NNE 7 11 1006.0 - 0.0 - Partly cloudy 10 - - - -
28/06:00am 15.4 NNE 8 12 1006.1 - 0.0 - Cloudy 10 - - - -
28/05:30am 13.4 NE 5 11 1006.6 - 0.0 - Partly cloudy 10 - - - -
28/05:00am 9.4 WSW 1 4 1006.6 - 0.0 - Partly cloudy 10 - - - -
28/04:30am 9.0 W 5 6 1006.9 - 0.0 - Partly cloudy 10 - - - -
28/04:00am 8.4 W 6 7 1007.1 - 0.0 - - 10 - - - -
28/03:30am 9.6 WNW 4 5 1007.3 - 0.0 - - 10 - - - -
28/03:00am 9.4 W 5 5 1007.8 - 0.0 - Partly cloudy 10 - - - -
28/02:30am 9.4 WSW 5 5 1008.0 - 0.0 - - 10 - - - -
28/02:00am 11.5 WNW 7 7 1008.6 - 0.0 - - 10 - - - -
28/01:30am 11.7 NW 7 9 1008.5 - 0.0 - - 10 - - - -
28/01:00am 10.4 WNW 5 8 1008.6 - 0.0 - - 10 - - - -
28/12:30am 11.4 WNW 8 9 1008.8 - 0.0 - - 10 - - - -
28/12:00am 12.0 WNW 7 8 1008.8 - 0.0 - Partly cloudy 10 - - - -
 
Date/Time
EDT
Temp

°C
Wind Pressure Rain
since 9am
mm
Weather Cloud Vis
km
Sea
Height
m
Swell
Dir
 
Speed
knots
Gust
knots
hPa Trend Height
m
Period
s
Dir
27/11:30pm 12.6 WNW 6 7 1009.0 - 0.0 - - 10 - - - -
27/11:00pm 11.0 WSW 7 10 1009.1 - 0.0 - - 10 - - - -
27/10:30pm 12.1 WNW 9 10 1009.5 - 0.0 - - 10 - - - -
27/10:00pm 12.7 W 7 9 1009.2 - 0.0 - - 10 - - - -
27/09:30pm 12.8 WNW 8 9 1009.4 - 0.0 - - 10 - - - -
27/09:00pm 13.1 W 8 10 1009.3 - 0.0 - - 10 - - - -
27/08:30pm 13.6 W 6 8 1009.0 - 0.0 - - 10 - - - -
27/08:00pm 15.9 WSW 9 13 1008.7 - 0.0 - - 10 - - - -
27/07:30pm 16.9 WSW 10 15 1008.2 - 0.0 - - 10 - - - -
27/07:00pm 17.9 SSW 9 12 1007.6 - 0.0 - - 10 - - - -
27/06:30pm 18.8 SSW 11 17 1008.0 - 0.0 - Partly cloudy 10 - - - -
27/06:00pm 19.5 SSW 8 13 1007.8 - 0.0 - Cloudy 10 - - - -
27/05:30pm 19.5 WSW 11 15 1007.7 - 0.0 - Partly cloudy 10 - - - -
27/05:00pm 20.7 W 14 20 1007.8 - 0.0 - - 10 - - - -
27/04:30pm 19.6 W 14 18 1008.0 - 0.0 - - 10 - - - -
27/04:00pm 19.6 W 15 18 1007.9 - 0.0 - - 10 - - - -
27/03:30pm 21.2 W 13 19 1007.8 - 0.0 - - 10 - - - -
27/03:00pm 21.6 WSW 14 20 1008.0 - 0.0 - Cloudy 10 - - - -
27/02:30pm 20.0 W 14 17 1008.2 - 0.0 - - 10 - - - -
27/02:00pm 21.1 W 12 16 1008.2 - 0.0 - - 10 - - - -
27/01:30pm 21.6 WSW 11 18 1008.3 - 0.0 - - 10 - - - -
27/01:00pm 20.4 WSW 10 17 1008.5 - 0.0 - - 10 - - - -
27/12:30pm 19.5 WSW 9 16 1008.4 - 0.0 - Partly cloudy 10 - - - -
27/12:00pm 19.3 NW 10 16 1009.2 - 0.0 - Partly cloudy 10 - - - -
27/11:30am 18.1 NNE 8 10 1009.4 - 0.0 - Partly cloudy 10 - - - -
27/11:00am 18.5 NNE 7 10 1009.1 - 0.0 - - 10 - - - -
27/10:30am 17.1 E 4 6 1009.5 - 0.0 - Partly cloudy 10 - - - -
27/10:00am 16.2 NE 1 3 1009.6 - 0.0 - Partly cloudy 10 - - - -
27/09:30am 14.6 N 4 6 1009.7 - 0.0 - Partly cloudy 10 - - - -
27/09:00am 13.0 WNW 6 8 1009.8 - 0.2 - Mostly cloudy 10 - - - -
27/08:30am 11.2 WNW 7 9 1009.6 - 0.2 - Cloudy 10 - - - -
27/08:17am 10.6 NW 6 8 1009.4 - 0.2 - Partly cloudy 10 - - - -
27/08:00am 10.4 NW 7 10 1009.5 - 0.2 - Partly cloudy 10 - - - -
27/07:30am 10.4 NW 1 6 1009.0 - 0.2 - Cloudy 10 - - - -
27/07:00am 10.2 WNW 5 7 1009.1 - 0.2 - Cloudy 10 - - - -
27/06:30am 9.5 WNW 5 7 1009.0 - 0.2 - Partly cloudy 10 - - - -
27/06:00am 9.0 SW 3 5 1009.3 - 0.2 - Mostly cloudy 10 - - - -
27/05:30am 9.3 WNW 7 8 1009.6 - 0.2 - Partly cloudy 10 - - - -
27/05:29am 9.3 WNW 7 8 1009.6 - 0.2 - Partly cloudy 10 - - - -
27/05:00am 8.6 WNW 7 8 1009.3 - 0.2 - - 10 - - - -
27/04:30am 7.8 W 3 4 1009.4 - 0.2 - - 10 - - - -
27/04:00am 8.1 W 6 7 1009.5 - 0.2 - - 10 - - - -
27/03:55am 8.2 W 6 7 1009.5 - 0.2 - - 10 - - - -
27/03:37am 8.5 WSW 4 5 1009.4 - 0.2 - - 5 - - - -
27/03:30am 8.2 WSW 4 5 1009.3 - 0.2 - - 10 - - - -
27/03:00am 10.5 WNW 2 4 1009.4 - 0.2 - - 10 - - - -
27/02:30am 10.0 WNW 5 6 1009.5 - 0.2 - - 10 - - - -
27/02:00am 10.5 WNW 7 8 1009.5 - 0.2 - - 10 - - - -
27/01:30am 11.4 W 7 8 1009.8 - 0.2 - - 10 - - - -
27/01:00am 12.3 WNW 6 7 1009.9 - 0.2 - - 10 - - - -
27/12:30am 12.4 W 3 6 1009.7 - 0.2 - - 10 - - - -
27/12:00am 12.5 W 7 9 1009.6 - 0.2 - - 10 - - - -
 
Date/Time
EDT
Temp

°C
Wind Pressure Rain
since 9am
mm
Weather Cloud Vis
km
Sea
Height
m
Swell
Dir
 
Speed
knots
Gust
knots
hPa Trend Height
m
Period
s
Dir
26/11:30pm 13.2 W 5 6 1009.8 - 0.2 - - 10 - - - -
26/11:00pm 13.8 WNW 6 8 1010.1 - 0.2 - - 10 - - - -
26/10:30pm 14.8 WNW 7 8 1009.9 - 0.2 - - 10 - - - -
26/10:00pm 15.2 W 4 5 1009.6 - 0.2 - - 10 - - - -
26/09:30pm 16.5 W 4 5 1009.5 - 0.2 - - 10 - - - -
26/09:00pm 16.7 SW 6 8 1009.3 - 0.2 - - 10 - - - -
26/08:30pm 17.8 SW 8 11 1008.8 - 0.2 - - 10 - - - -
26/08:00pm 19.0 SW 8 11 1008.4 - 0.2 - - 10 - - - -
26/07:30pm 20.4 SSW 9 12 1007.9 - 0.2 - - 10 - - - -
26/07:00pm 21.5 SW 11 15 1007.5 - 0.2 - - 10 - - - -
26/06:30pm 22.6 SW 11 15 1007.1 - 0.2 - - 10 - - - -
26/06:00pm 23.2 WSW 14 18 1006.9 - 0.2 - Mostly clear 10 - - - -
26/05:30pm 23.8 SW 11 17 1006.6 - 0.2 - Partly cloudy 10 - - - -
26/05:00pm 23.7 SW 12 19 1006.4 - 0.2 - Partly cloudy 10 - - - -
26/04:30pm 24.1 WSW 14 19 1006.4 - 0.2 - - 10 - - - -
26/04:00pm 24.6 W 15 22 1006.5 - 0.2 - Partly cloudy 10 - - - -
26/03:30pm 24.7 SW 12 17 1006.7 - 0.2 - Partly cloudy 10 - - - -
26/03:00pm 24.6 WSW 14 22 1007.0 - 0.2 - Mostly clear 10 - - - -
26/02:30pm 25.1 WSW 13 21 1007.1 - 0.2 - Partly cloudy 10 - - - -
26/02:00pm 22.8 WSW 11 15 1007.3 - 0.2 - Partly cloudy 10 - - - -
26/01:30pm 22.7 WSW 12 19 1007.6 - 0.2 - Partly cloudy 10 - - - -
26/01:00pm 22.2 WSW 13 20 1007.6 - 0.2 - Partly cloudy 10 - - - -
26/12:30pm 22.0 WSW 12 18 1007.8 - 0.2 - Partly cloudy 10 - - - -
26/12:00pm 21.0 SW 11 17 1008.2 - 0.2 Recent precip. Mostly cloudy 10 - - - -
26/11:30am 18.5 W 8 12 1008.6 - 0.2 - Partly cloudy 10 - - - -
26/11:23am 18.6 W 7 9 1008.7 - 0.2 - Partly cloudy 10 - - - -
26/11:06am 17.5 W 8 13 1008.9 - 0.2 - Partly cloudy 5 - - - -
26/11:00am 18.1 WNW 7 10 1008.9 - 0.0 - Partly cloudy 10 - - - -
26/10:30am 17.7 W 4 5 1008.8 - 0.0 - Partly cloudy 10 - - - -
26/10:00am 17.2 NNW 1 4 1008.9 - 0.0 - Partly cloudy 10 - - - -
26/09:30am 16.9 CALM 0 0 1008.7 - 0.0 - Partly cloudy 10 - - - -
26/09:00am 15.9 W 3 5 1008.8 - 0.2 - Cloudy 10 - - - -
26/08:30am 15.5 CALM 0 0 1008.7 - 0.2 - Cloudy 10 - - - -
26/08:00am 15.2 ESE 1 3 1008.7 - 0.2 - Cloudy 10 - - - -
26/07:30am 14.9 WSW 1 4 1008.7 - 0.2 - Partly cloudy 10 - - - -
26/07:00am 14.6 SW 5 6 1008.7 - 0.2 - Partly cloudy 10 - - - -
26/06:54am 14.5 SW 2 6 1008.7 - 0.2 - Partly cloudy 10 - - - -
26/06:30am 14.7 SSW 4 6 1008.8 - 0.2 - Partly cloudy 10 - - - -

Other Formats:

Comma delimited format used in spreadsheet applications
http://www.bom.gov.au/fwo/IDT60701/IDT60701.95957.axf

JavaScript Object Notation format (JSON) in row-major order
http://www.bom.gov.au/fwo/IDT60701/IDT60701.95957.json